sensor_id;sensor_type;location;lat;lon;timestamp;pressure;altitude;pressure_sealevel;temperature
30765;BMP180;494;48.744;10.106;2024-03-08T00:02:18;95493.00;;;3.20
30765;BMP180;494;48.744;10.106;2024-03-08T00:04:48;95300.00;;;3.00
30765;BMP180;494;48.744;10.106;2024-03-08T00:07:18;94706.00;;;3.10
30765;BMP180;494;48.744;10.106;2024-03-08T00:09:47;95565.00;;;3.10
30765;BMP180;494;48.744;10.106;2024-03-08T00:12:15;95557.00;;;2.50
30765;BMP180;494;48.744;10.106;2024-03-08T00:14:44;94937.00;;;2.10
30765;BMP180;494;48.744;10.106;2024-03-08T00:17:13;95124.00;;;3.20
30765;BMP180;494;48.744;10.106;2024-03-08T00:19:43;95602.00;;;3.20
30765;BMP180;494;48.744;10.106;2024-03-08T00:22:15;95421.00;;;3.20
30765;BMP180;494;48.744;10.106;2024-03-08T00:24:45;95572.00;;;3.00
30765;BMP180;494;48.744;10.106;2024-03-08T00:27:13;95558.00;;;3.20
30765;BMP180;494;48.744;10.106;2024-03-08T00:29:43;95560.00;;;3.00
30765;BMP180;494;48.744;10.106;2024-03-08T00:32:12;95531.00;;;3.20
30765;BMP180;494;48.744;10.106;2024-03-08T00:34:42;94699.00;;;3.20
30765;BMP180;494;48.744;10.106;2024-03-08T00:37:17;95542.00;;;3.10
30765;BMP180;494;48.744;10.106;2024-03-08T00:39:46;95529.00;;;3.30
30765;BMP180;494;48.744;10.106;2024-03-08T00:42:18;95355.00;;;3.40
30765;BMP180;494;48.744;10.106;2024-03-08T00:44:47;95529.00;;;3.30
30765;BMP180;494;48.744;10.106;2024-03-08T00:47:19;95240.00;;;3.50
30765;BMP180;494;48.744;10.106;2024-03-08T00:49:49;94950.00;;;3.50
30765;BMP180;494;48.744;10.106;2024-03-08T00:52:20;95525.00;;;3.30
30765;BMP180;494;48.744;10.106;2024-03-08T00:54:50;95504.00;;;3.30
30765;BMP180;494;48.744;10.106;2024-03-08T00:57:19;95380.00;;;3.50
30765;BMP180;494;48.744;10.106;2024-03-08T00:59:50;95384.00;;;3.60
30765;BMP180;494;48.744;10.106;2024-03-08T01:02:20;95521.00;;;3.60
30765;BMP180;494;48.744;10.106;2024-03-08T01:04:50;95125.00;;;3.60
30765;BMP180;494;48.744;10.106;2024-03-08T01:07:29;95537.00;;;3.70
30765;BMP180;494;48.744;10.106;2024-03-08T01:09:58;95562.00;;;3.60
30765;BMP180;494;48.744;10.106;2024-03-08T01:12:28;95150.00;;;3.20
30765;BMP180;494;48.744;10.106;2024-03-08T01:14:59;95227.00;;;3.50
30765;BMP180;494;48.744;10.106;2024-03-08T01:17:28;95441.00;;;3.30
30765;BMP180;494;48.744;10.106;2024-03-08T01:19:58;95507.00;;;2.90
30765;BMP180;494;48.744;10.106;2024-03-08T01:22:30;95245.00;;;3.20
30765;BMP180;494;48.744;10.106;2024-03-08T01:25:00;95385.00;;;3.50
30765;BMP180;494;48.744;10.106;2024-03-08T01:27:28;95459.00;;;3.50
30765;BMP180;494;48.744;10.106;2024-03-08T01:29:58;95485.00;;;3.50
30765;BMP180;494;48.744;10.106;2024-03-08T01:32:26;95254.00;;;3.60
30765;BMP180;494;48.744;10.106;2024-03-08T01:34:55;95458.00;;;3.70
30765;BMP180;494;48.744;10.106;2024-03-08T01:37:24;95353.00;;;2.90
30765;BMP180;494;48.744;10.106;2024-03-08T01:39:55;95531.00;;;3.50
30765;BMP180;494;48.744;10.106;2024-03-08T01:42:28;94093.00;;;3.40
30765;BMP180;494;48.744;10.106;2024-03-08T01:44:57;95310.00;;;3.60
30765;BMP180;494;48.744;10.106;2024-03-08T01:47:26;95466.00;;;3.60
30765;BMP180;494;48.744;10.106;2024-03-08T01:49:55;94273.00;;;3.40
30765;BMP180;494;48.744;10.106;2024-03-08T01:52:29;95039.00;;;3.50
30765;BMP180;494;48.744;10.106;2024-03-08T01:55:03;95301.00;;;3.70
30765;BMP180;494;48.744;10.106;2024-03-08T01:57:35;95302.00;;;3.70
30765;BMP180;494;48.744;10.106;2024-03-08T02:00:07;95448.00;;;3.60
30765;BMP180;494;48.744;10.106;2024-03-08T02:02:40;95435.00;;;3.60
30765;BMP180;494;48.744;10.106;2024-03-08T02:05:10;95220.00;;;3.60
30765;BMP180;494;48.744;10.106;2024-03-08T02:07:43;95430.00;;;3.60
30765;BMP180;494;48.744;10.106;2024-03-08T02:10:14;95351.00;;;2.90
30765;BMP180;494;48.744;10.106;2024-03-08T02:12:44;94775.00;;;3.40
30765;BMP180;494;48.744;10.106;2024-03-08T02:15:15;94754.00;;;3.40
30765;BMP180;494;48.744;10.106;2024-03-08T02:17:43;95447.00;;;3.50
30765;BMP180;494;48.744;10.106;2024-03-08T02:23:34;95239.00;;;2.70
30765;BMP180;494;48.744;10.106;2024-03-08T02:26:04;95145.00;;;3.40
30765;BMP180;494;48.744;10.106;2024-03-08T02:28:36;95399.00;;;3.30
30765;BMP180;494;48.744;10.106;2024-03-08T02:31:06;95249.00;;;3.50
30765;BMP180;494;48.744;10.106;2024-03-08T02:33:36;94591.00;;;3.50
30765;BMP180;494;48.744;10.106;2024-03-08T02:36:08;95279.00;;;3.40
30765;BMP180;494;48.744;10.106;2024-03-08T02:38:42;95624.00;;;3.50
30765;BMP180;494;48.744;10.106;2024-03-08T02:41:13;95274.00;;;3.40
30765;BMP180;494;48.744;10.106;2024-03-08T02:43:48;95474.00;;;3.40
30765;BMP180;494;48.744;10.106;2024-03-08T02:46:18;95279.00;;;2.00
30765;BMP180;494;48.744;10.106;2024-03-08T02:49:01;95484.00;;;3.10
30765;BMP180;494;48.744;10.106;2024-03-08T02:51:34;94918.00;;;3.70
30765;BMP180;494;48.744;10.106;2024-03-08T02:54:05;95266.00;;;3.70
30765;BMP180;494;48.744;10.106;2024-03-08T02:56:43;95387.00;;;3.50
30765;BMP180;494;48.744;10.106;2024-03-08T02:59:32;95396.00;;;3.70
30765;BMP180;494;48.744;10.106;2024-03-08T03:02:01;95304.00;;;3.50
30765;BMP180;494;48.744;10.106;2024-03-08T03:04:29;95339.00;;;3.20
30765;BMP180;494;48.744;10.106;2024-03-08T03:06:58;94880.00;;;3.80
30765;BMP180;494;48.744;10.106;2024-03-08T03:09:29;94261.00;;;3.80
30765;BMP180;494;48.744;10.106;2024-03-08T03:12:00;95315.00;;;3.90
30765;BMP180;494;48.744;10.106;2024-03-08T03:14:29;95391.00;;;3.90
30765;BMP180;494;48.744;10.106;2024-03-08T03:16:58;95298.00;;;3.20
30765;BMP180;494;48.744;10.106;2024-03-08T03:19:27;95262.00;;;4.00
30765;BMP180;494;48.744;10.106;2024-03-08T03:21:57;95395.00;;;4.00
30765;BMP180;494;48.744;10.106;2024-03-08T03:24:27;95092.00;;;3.80
30765;BMP180;494;48.744;10.106;2024-03-08T03:26:56;95373.00;;;4.00
30765;BMP180;494;48.744;10.106;2024-03-08T03:29:26;95204.00;;;4.00
30765;BMP180;494;48.744;10.106;2024-03-08T03:31:55;95238.00;;;3.80
30765;BMP180;494;48.744;10.106;2024-03-08T03:34:24;95361.00;;;4.00
30765;BMP180;494;48.744;10.106;2024-03-08T03:36:53;95214.00;;;3.70
30765;BMP180;494;48.744;10.106;2024-03-08T03:39:25;95128.00;;;3.80
30765;BMP180;494;48.744;10.106;2024-03-08T03:42:03;95304.00;;;4.00
30765;BMP180;494;48.744;10.106;2024-03-08T03:44:32;95216.00;;;4.10
30765;BMP180;494;48.744;10.106;2024-03-08T03:47:01;95375.00;;;4.00
30765;BMP180;494;48.744;10.106;2024-03-08T03:49:29;95219.00;;;3.90
30765;BMP180;494;48.744;10.106;2024-03-08T03:51:58;95078.00;;;3.00
30765;BMP180;494;48.744;10.106;2024-03-08T03:54:27;94690.00;;;3.80
30765;BMP180;494;48.744;10.106;2024-03-08T03:56:57;95400.00;;;4.00
30765;BMP180;494;48.744;10.106;2024-03-08T03:59:28;95358.00;;;3.80
30765;BMP180;494;48.744;10.106;2024-03-08T04:01:56;95139.00;;;3.80
30765;BMP180;494;48.744;10.106;2024-03-08T04:04:26;95206.00;;;4.00
30765;BMP180;494;48.744;10.106;2024-03-08T04:06:54;94701.00;;;4.00
30765;BMP180;494;48.744;10.106;2024-03-08T04:09:23;94870.00;;;3.40
30765;BMP180;494;48.744;10.106;2024-03-08T04:11:51;95287.00;;;3.70
30765;BMP180;494;48.744;10.106;2024-03-08T04:14:23;95340.00;;;3.60
30765;BMP180;494;48.744;10.106;2024-03-08T04:16:53;95388.00;;;3.60
30765;BMP180;494;48.744;10.106;2024-03-08T04:19:22;94348.00;;;3.70
30765;BMP180;494;48.744;10.106;2024-03-08T04:21:51;95115.00;;;3.90
30765;BMP180;494;48.744;10.106;2024-03-08T04:24:22;95272.00;;;3.90
30765;BMP180;494;48.744;10.106;2024-03-08T04:26:51;95100.00;;;1.80
30765;BMP180;494;48.744;10.106;2024-03-08T04:29:20;94936.00;;;3.00
30765;BMP180;494;48.744;10.106;2024-03-08T04:31:49;94111.00;;;3.60
30765;BMP180;494;48.744;10.106;2024-03-08T04:34:23;94890.00;;;3.60
30765;BMP180;494;48.744;10.106;2024-03-08T04:36:51;94118.00;;;3.70
30765;BMP180;494;48.744;10.106;2024-03-08T04:39:22;94841.00;;;3.60
30765;BMP180;494;48.744;10.106;2024-03-08T04:41:59;94597.00;;;3.60
30765;BMP180;494;48.744;10.106;2024-03-08T04:44:33;95107.00;;;3.50
30765;BMP180;494;48.744;10.106;2024-03-08T04:47:01;95442.00;;;1.80
30765;BMP180;494;48.744;10.106;2024-03-08T04:49:32;95340.00;;;3.90
30765;BMP180;494;48.744;10.106;2024-03-08T04:52:02;95336.00;;;3.70
30765;BMP180;494;48.744;10.106;2024-03-08T04:54:31;95342.00;;;3.40
30765;BMP180;494;48.744;10.106;2024-03-08T04:57:00;95368.00;;;3.30
30765;BMP180;494;48.744;10.106;2024-03-08T04:59:33;95069.00;;;3.40
30765;BMP180;494;48.744;10.106;2024-03-08T05:02:04;95352.00;;;3.50
30765;BMP180;494;48.744;10.106;2024-03-08T05:04:35;95190.00;;;3.30
30765;BMP180;494;48.744;10.106;2024-03-08T05:07:04;95325.00;;;3.60
30765;BMP180;494;48.744;10.106;2024-03-08T05:09:32;95096.00;;;3.40
30765;BMP180;494;48.744;10.106;2024-03-08T05:12:04;95092.00;;;3.20
30765;BMP180;494;48.744;10.106;2024-03-08T05:14:33;94588.00;;;3.30
30765;BMP180;494;48.744;10.106;2024-03-08T05:17:02;95024.00;;;3.70
30765;BMP180;494;48.744;10.106;2024-03-08T05:19:36;95316.00;;;3.70
30765;BMP180;494;48.744;10.106;2024-03-08T05:22:05;95316.00;;;3.50
30765;BMP180;494;48.744;10.106;2024-03-08T05:24:34;94924.00;;;3.40
30765;BMP180;494;48.744;10.106;2024-03-08T05:27:03;95381.00;;;3.50
30765;BMP180;494;48.744;10.106;2024-03-08T05:29:31;95164.00;;;3.50
30765;BMP180;494;48.744;10.106;2024-03-08T05:32:00;95144.00;;;3.20
30765;BMP180;494;48.744;10.106;2024-03-08T05:34:30;95246.00;;;3.30
30765;BMP180;494;48.744;10.106;2024-03-08T05:37:00;95312.00;;;3.10
30765;BMP180;494;48.744;10.106;2024-03-08T05:39:29;94234.00;;;3.10
30765;BMP180;494;48.744;10.106;2024-03-08T05:42:00;95182.00;;;3.30
30765;BMP180;494;48.744;10.106;2024-03-08T05:44:29;95364.00;;;3.70
30765;BMP180;494;48.744;10.106;2024-03-08T05:47:03;95468.00;;;3.40
30765;BMP180;494;48.744;10.106;2024-03-08T05:49:32;94883.00;;;3.40
30765;BMP180;494;48.744;10.106;2024-03-08T05:52:03;94411.00;;;3.10
30765;BMP180;494;48.744;10.106;2024-03-08T05:54:31;94361.00;;;2.50
30765;BMP180;494;48.744;10.106;2024-03-08T05:57:00;94743.00;;;3.20
30765;BMP180;494;48.744;10.106;2024-03-08T05:59:33;95288.00;;;3.20
30765;BMP180;494;48.744;10.106;2024-03-08T06:02:05;94387.00;;;3.10
30765;BMP180;494;48.744;10.106;2024-03-08T06:04:34;95080.00;;;2.90
30765;BMP180;494;48.744;10.106;2024-03-08T06:07:05;95294.00;;;3.10
30765;BMP180;494;48.744;10.106;2024-03-08T06:09:34;94634.00;;;2.90
30765;BMP180;494;48.744;10.106;2024-03-08T06:12:03;95295.00;;;2.80
30765;BMP180;494;48.744;10.106;2024-03-08T06:14:33;94085.00;;;2.60
30765;BMP180;494;48.744;10.106;2024-03-08T06:17:02;95054.00;;;3.10
30765;BMP180;494;48.744;10.106;2024-03-08T06:19:33;94872.00;;;3.10
30765;BMP180;494;48.744;10.106;2024-03-08T06:22:05;95301.00;;;3.10
30765;BMP180;494;48.744;10.106;2024-03-08T06:24:33;95436.00;;;3.20
30765;BMP180;494;48.744;10.106;2024-03-08T06:27:04;94770.00;;;3.10
30765;BMP180;494;48.744;10.106;2024-03-08T06:29:33;95308.00;;;3.00
30765;BMP180;494;48.744;10.106;2024-03-08T06:32:02;95308.00;;;2.80
30765;BMP180;494;48.744;10.106;2024-03-08T06:34:33;95312.00;;;3.10
30765;BMP180;494;48.744;10.106;2024-03-08T06:37:04;95401.00;;;3.10
30765;BMP180;494;48.744;10.106;2024-03-08T06:39:33;94985.00;;;3.10
30765;BMP180;494;48.744;10.106;2024-03-08T06:42:03;95370.00;;;3.30
30765;BMP180;494;48.744;10.106;2024-03-08T06:44:32;94434.00;;;1.60
30765;BMP180;494;48.744;10.106;2024-03-08T06:47:02;95194.00;;;3.20
30765;BMP180;494;48.744;10.106;2024-03-08T06:49:30;95377.00;;;3.00
30765;BMP180;494;48.744;10.106;2024-03-08T06:51:59;95164.00;;;3.20
30765;BMP180;494;48.744;10.106;2024-03-08T06:54:29;95178.00;;;3.00
30765;BMP180;494;48.744;10.106;2024-03-08T06:56:58;95305.00;;;3.10
30765;BMP180;494;48.744;10.106;2024-03-08T06:59:27;95303.00;;;3.20
30765;BMP180;494;48.744;10.106;2024-03-08T07:01:56;95301.00;;;2.80
30765;BMP180;494;48.744;10.106;2024-03-08T07:04:26;94515.00;;;3.20
30765;BMP180;494;48.744;10.106;2024-03-08T07:06:56;94787.00;;;3.50
30765;BMP180;494;48.744;10.106;2024-03-08T07:09:25;95167.00;;;3.40
30765;BMP180;494;48.744;10.106;2024-03-08T07:11:56;94994.00;;;3.40
30765;BMP180;494;48.744;10.106;2024-03-08T07:14:24;95109.00;;;3.20
30765;BMP180;494;48.744;10.106;2024-03-08T07:16:57;95304.00;;;2.90
30765;BMP180;494;48.744;10.106;2024-03-08T07:19:26;94929.00;;;2.40
30765;BMP180;494;48.744;10.106;2024-03-08T07:21:55;95213.00;;;3.20
30765;BMP180;494;48.744;10.106;2024-03-08T07:24:23;94653.00;;;3.10
30765;BMP180;494;48.744;10.106;2024-03-08T07:27:08;95274.00;;;3.50
30765;BMP180;494;48.744;10.106;2024-03-08T07:29:37;95112.00;;;3.40
30765;BMP180;494;48.744;10.106;2024-03-08T07:32:06;95134.00;;;3.20
30765;BMP180;494;48.744;10.106;2024-03-08T07:34:48;95281.00;;;3.30
30765;BMP180;494;48.744;10.106;2024-03-08T07:37:18;95244.00;;;3.20
30765;BMP180;494;48.744;10.106;2024-03-08T07:39:47;95179.00;;;3.40
30765;BMP180;494;48.744;10.106;2024-03-08T07:42:17;94948.00;;;3.30
30765;BMP180;494;48.744;10.106;2024-03-08T07:44:46;95337.00;;;2.00
30765;BMP180;494;48.744;10.106;2024-03-08T07:47:15;95304.00;;;2.50
30765;BMP180;494;48.744;10.106;2024-03-08T07:49:56;94664.00;;;2.80
30765;BMP180;494;48.744;10.106;2024-03-08T07:52:31;95342.00;;;3.40
30765;BMP180;494;48.744;10.106;2024-03-08T07:55:01;95331.00;;;3.50
30765;BMP180;494;48.744;10.106;2024-03-08T07:57:32;95158.00;;;3.20
30765;BMP180;494;48.744;10.106;2024-03-08T08:00:01;95303.00;;;2.20
30765;BMP180;494;48.744;10.106;2024-03-08T08:02:34;94775.00;;;4.10
30765;BMP180;494;48.744;10.106;2024-03-08T08:05:07;94403.00;;;4.00
30765;BMP180;494;48.744;10.106;2024-03-08T08:07:37;94243.00;;;4.10
30765;BMP180;494;48.744;10.106;2024-03-08T08:10:07;94884.00;;;4.00
30765;BMP180;494;48.744;10.106;2024-03-08T08:12:45;94147.00;;;3.90
30765;BMP180;494;48.744;10.106;2024-03-08T08:15:14;95371.00;;;4.00
30765;BMP180;494;48.744;10.106;2024-03-08T08:17:43;94969.00;;;4.30
30765;BMP180;494;48.744;10.106;2024-03-08T08:20:13;95322.00;;;4.20
30765;BMP180;494;48.744;10.106;2024-03-08T08:22:42;94909.00;;;4.40
30765;BMP180;494;48.744;10.106;2024-03-08T08:25:11;95139.00;;;4.50
30765;BMP180;494;48.744;10.106;2024-03-08T08:27:41;95247.00;;;4.20
30765;BMP180;494;48.744;10.106;2024-03-08T08:30:12;95240.00;;;4.30
30765;BMP180;494;48.744;10.106;2024-03-08T08:32:41;95240.00;;;4.00
30765;BMP180;494;48.744;10.106;2024-03-08T08:35:10;95240.00;;;4.20
30765;BMP180;494;48.744;10.106;2024-03-08T08:37:39;95136.00;;;3.90
30765;BMP180;494;48.744;10.106;2024-03-08T08:40:09;94918.00;;;4.10
30765;BMP180;494;48.744;10.106;2024-03-08T08:42:42;95267.00;;;3.90
30765;BMP180;494;48.744;10.106;2024-03-08T08:45:17;95118.00;;;3.80
30765;BMP180;494;48.744;10.106;2024-03-08T08:47:51;95236.00;;;4.00
30765;BMP180;494;48.744;10.106;2024-03-08T08:50:22;94727.00;;;4.20
30765;BMP180;494;48.744;10.106;2024-03-08T08:52:52;95232.00;;;4.20
30765;BMP180;494;48.744;10.106;2024-03-08T08:55:21;95229.00;;;4.20
30765;BMP180;494;48.744;10.106;2024-03-08T08:57:53;95096.00;;;2.00
30765;BMP180;494;48.744;10.106;2024-03-08T09:00:25;95170.00;;;4.40
30765;BMP180;494;48.744;10.106;2024-03-08T09:02:55;95418.00;;;4.40
30765;BMP180;494;48.744;10.106;2024-03-08T09:05:25;95218.00;;;4.60
30765;BMP180;494;48.744;10.106;2024-03-08T09:07:55;95243.00;;;4.40
30765;BMP180;494;48.744;10.106;2024-03-08T09:10:24;95232.00;;;4.50
30765;BMP180;494;48.744;10.106;2024-03-08T09:12:55;95210.00;;;4.50
30765;BMP180;494;48.744;10.106;2024-03-08T09:15:25;95212.00;;;4.70
30765;BMP180;494;48.744;10.106;2024-03-08T09:17:56;95131.00;;;4.70
30765;BMP180;494;48.744;10.106;2024-03-08T09:20:26;95016.00;;;4.10
30765;BMP180;494;48.744;10.106;2024-03-08T09:22:55;95191.00;;;5.00
30765;BMP180;494;48.744;10.106;2024-03-08T09:25:25;95208.00;;;4.90
30765;BMP180;494;48.744;10.106;2024-03-08T09:27:55;95218.00;;;4.90
30765;BMP180;494;48.744;10.106;2024-03-08T09:30:26;95201.00;;;5.00
30765;BMP180;494;48.744;10.106;2024-03-08T09:32:54;94985.00;;;5.30
30765;BMP180;494;48.744;10.106;2024-03-08T09:35:25;95190.00;;;5.70
30765;BMP180;494;48.744;10.106;2024-03-08T09:37:54;95029.00;;;5.90
30765;BMP180;494;48.744;10.106;2024-03-08T09:40:23;95191.00;;;5.70
30765;BMP180;494;48.744;10.106;2024-03-08T09:42:53;95012.00;;;5.50
30765;BMP180;494;48.744;10.106;2024-03-08T09:45:24;95078.00;;;5.40
30765;BMP180;494;48.744;10.106;2024-03-08T09:47:55;94915.00;;;3.60
30765;BMP180;494;48.744;10.106;2024-03-08T09:50:25;95168.00;;;5.70
30765;BMP180;494;48.744;10.106;2024-03-08T09:52:56;94980.00;;;5.70
30765;BMP180;494;48.744;10.106;2024-03-08T09:55:26;95023.00;;;6.00
30765;BMP180;494;48.744;10.106;2024-03-08T09:58:05;95166.00;;;4.50
30765;BMP180;494;48.744;10.106;2024-03-08T10:01:05;94495.00;;;6.20
30765;BMP180;494;48.744;10.106;2024-03-08T10:03:35;94995.00;;;6.30
30765;BMP180;494;48.744;10.106;2024-03-08T10:06:04;94964.00;;;6.70
30765;BMP180;494;48.744;10.106;2024-03-08T10:08:33;95056.00;;;6.70
30765;BMP180;494;48.744;10.106;2024-03-08T10:11:02;94959.00;;;7.40
30765;BMP180;494;48.744;10.106;2024-03-08T10:13:32;95148.00;;;7.90
30765;BMP180;494;48.744;10.106;2024-03-08T10:16:00;95159.00;;;8.00
30765;BMP180;494;48.744;10.106;2024-03-08T10:18:32;95164.00;;;7.70
30765;BMP180;494;48.744;10.106;2024-03-08T10:21:07;95099.00;;;8.10
30765;BMP180;494;48.744;10.106;2024-03-08T10:23:37;95167.00;;;7.90
30765;BMP180;494;48.744;10.106;2024-03-08T10:26:11;95206.00;;;7.90
30765;BMP180;494;48.744;10.106;2024-03-08T10:28:42;95061.00;;;7.90
30765;BMP180;494;48.744;10.106;2024-03-08T10:31:12;95153.00;;;7.80
30765;BMP180;494;48.744;10.106;2024-03-08T10:33:47;95054.00;;;7.50
30765;BMP180;494;48.744;10.106;2024-03-08T10:36:16;95162.00;;;7.80
30765;BMP180;494;48.744;10.106;2024-03-08T10:38:46;94628.00;;;8.00
30765;BMP180;494;48.744;10.106;2024-03-08T10:41:16;95029.00;;;8.50
30765;BMP180;494;48.744;10.106;2024-03-08T10:44:07;94828.00;;;9.20
30765;BMP180;494;48.744;10.106;2024-03-08T10:46:56;95201.00;;;9.10
30765;BMP180;494;48.744;10.106;2024-03-08T10:49:32;95057.00;;;8.70
30765;BMP180;494;48.744;10.106;2024-03-08T10:52:04;95104.00;;;8.70
30765;BMP180;494;48.744;10.106;2024-03-08T10:54:37;94715.00;;;8.40
30765;BMP180;494;48.744;10.106;2024-03-08T10:57:13;95162.00;;;8.30
30765;BMP180;494;48.744;10.106;2024-03-08T10:59:43;94470.00;;;8.30
30765;BMP180;494;48.744;10.106;2024-03-08T11:02:12;95142.00;;;9.40
30765;BMP180;494;48.744;10.106;2024-03-08T11:04:48;95158.00;;;9.70
30765;BMP180;494;48.744;10.106;2024-03-08T11:07:17;95146.00;;;9.80
30765;BMP180;494;48.744;10.106;2024-03-08T11:09:48;95074.00;;;9.90
30765;BMP180;494;48.744;10.106;2024-03-08T11:12:22;94990.00;;;10.10
30765;BMP180;494;48.744;10.106;2024-03-08T11:14:53;95118.00;;;10.80
30765;BMP180;494;48.744;10.106;2024-03-08T11:17:39;94960.00;;;12.40
30765;BMP180;494;48.744;10.106;2024-03-08T11:20:11;94940.00;;;14.10
30765;BMP180;494;48.744;10.106;2024-03-08T11:22:50;94913.00;;;14.80
30765;BMP180;494;48.744;10.106;2024-03-08T11:25:34;95119.00;;;14.40
30765;BMP180;494;48.744;10.106;2024-03-08T11:28:15;94950.00;;;13.90
30765;BMP180;494;48.744;10.106;2024-03-08T11:31:25;94908.00;;;14.80
30765;BMP180;494;48.744;10.106;2024-03-08T11:33:54;94974.00;;;14.60
30765;BMP180;494;48.744;10.106;2024-03-08T11:36:25;94991.00;;;14.10
30765;BMP180;494;48.744;10.106;2024-03-08T11:38:57;94972.00;;;12.60
30765;BMP180;494;48.744;10.106;2024-03-08T11:41:26;95085.00;;;13.10
30765;BMP180;494;48.744;10.106;2024-03-08T11:44:04;95069.00;;;13.80
30765;BMP180;494;48.744;10.106;2024-03-08T11:46:38;94912.00;;;14.70
30765;BMP180;494;48.744;10.106;2024-03-08T11:49:12;95080.00;;;15.00
30765;BMP180;494;48.744;10.106;2024-03-08T11:51:44;95077.00;;;15.40
30765;BMP180;494;48.744;10.106;2024-03-08T11:54:13;94939.00;;;16.40
30765;BMP180;494;48.744;10.106;2024-03-08T11:56:42;94970.00;;;17.00
30765;BMP180;494;48.744;10.106;2024-03-08T11:59:11;94968.00;;;16.50
30765;BMP180;494;48.744;10.106;2024-03-08T12:01:58;95003.00;;;16.70
30765;BMP180;494;48.744;10.106;2024-03-08T12:04:31;94845.00;;;17.50
30765;BMP180;494;48.744;10.106;2024-03-08T12:07:02;95044.00;;;17.30
30765;BMP180;494;48.744;10.106;2024-03-08T12:09:40;94868.00;;;18.40
30765;BMP180;494;48.744;10.106;2024-03-08T12:12:17;95027.00;;;19.30
30765;BMP180;494;48.744;10.106;2024-03-08T12:14:46;94908.00;;;19.20
30765;BMP180;494;48.744;10.106;2024-03-08T12:17:16;94919.00;;;19.60
30765;BMP180;494;48.744;10.106;2024-03-08T12:19:46;94952.00;;;19.70
30765;BMP180;494;48.744;10.106;2024-03-08T12:22:19;94923.00;;;19.70
30765;BMP180;494;48.744;10.106;2024-03-08T12:25:03;94937.00;;;21.00
30765;BMP180;494;48.744;10.106;2024-03-08T12:27:38;94843.00;;;21.60
30765;BMP180;494;48.744;10.106;2024-03-08T12:30:22;94931.00;;;20.70
30765;BMP180;494;48.744;10.106;2024-03-08T12:32:56;95012.00;;;19.80
30765;BMP180;494;48.744;10.106;2024-03-08T12:35:31;95010.00;;;18.80
30765;BMP180;494;48.744;10.106;2024-03-08T12:38:02;94908.00;;;20.40
30765;BMP180;494;48.744;10.106;2024-03-08T12:40:32;95004.00;;;20.20
30765;BMP180;494;48.744;10.106;2024-03-08T12:43:02;94854.00;;;20.40
30765;BMP180;494;48.744;10.106;2024-03-08T12:45:30;94802.00;;;20.00
30765;BMP180;494;48.744;10.106;2024-03-08T12:48:00;94854.00;;;19.80
30765;BMP180;494;48.744;10.106;2024-03-08T12:50:30;94986.00;;;20.20
30765;BMP180;494;48.744;10.106;2024-03-08T12:52:59;95003.00;;;18.70
30765;BMP180;494;48.744;10.106;2024-03-08T12:55:36;94715.00;;;19.90
30765;BMP180;494;48.744;10.106;2024-03-08T12:58:05;94965.00;;;20.50
30765;BMP180;494;48.744;10.106;2024-03-08T13:00:35;94961.00;;;21.20
30765;BMP180;494;48.744;10.106;2024-03-08T13:03:11;94967.00;;;21.70
30765;BMP180;494;48.744;10.106;2024-03-08T13:05:40;94760.00;;;21.20
30765;BMP180;494;48.744;10.106;2024-03-08T13:08:11;94766.00;;;20.90
30765;BMP180;494;48.744;10.106;2024-03-08T13:10:42;94946.00;;;21.00
30765;BMP180;494;48.744;10.106;2024-03-08T13:13:13;94961.00;;;20.20
30765;BMP180;494;48.744;10.106;2024-03-08T13:15:45;94948.00;;;20.40
30765;BMP180;494;48.744;10.106;2024-03-08T13:18:16;94874.00;;;20.50
30765;BMP180;494;48.744;10.106;2024-03-08T13:20:45;94783.00;;;20.40
30765;BMP180;494;48.744;10.106;2024-03-08T13:23:29;94969.00;;;20.50
30765;BMP180;494;48.744;10.106;2024-03-08T13:25:59;94942.00;;;18.40
30765;BMP180;494;48.744;10.106;2024-03-08T13:28:38;94742.00;;;19.50
30765;BMP180;494;48.744;10.106;2024-03-08T13:31:11;94863.00;;;19.80
30765;BMP180;494;48.744;10.106;2024-03-08T13:33:42;94927.00;;;20.30
30765;BMP180;494;48.744;10.106;2024-03-08T13:36:14;94942.00;;;20.40
30765;BMP180;494;48.744;10.106;2024-03-08T13:39:08;94845.00;;;21.00
30765;BMP180;494;48.744;10.106;2024-03-08T13:41:45;94807.00;;;20.50
30765;BMP180;494;48.744;10.106;2024-03-08T13:44:14;94657.00;;;21.50
30765;BMP180;494;48.744;10.106;2024-03-08T13:46:47;94706.00;;;20.70
30765;BMP180;494;48.744;10.106;2024-03-08T13:49:20;94619.00;;;21.80
30765;BMP180;494;48.744;10.106;2024-03-08T13:51:49;94908.00;;;22.00
30765;BMP180;494;48.744;10.106;2024-03-08T13:54:18;94905.00;;;23.20
30765;BMP180;494;48.744;10.106;2024-03-08T13:56:48;94896.00;;;23.30
30765;BMP180;494;48.744;10.106;2024-03-08T13:59:17;94746.00;;;23.10
30765;BMP180;494;48.744;10.106;2024-03-08T14:01:45;94675.00;;;23.90
30765;BMP180;494;48.744;10.106;2024-03-08T14:04:16;94870.00;;;24.90
30765;BMP180;494;48.744;10.106;2024-03-08T14:06:45;94829.00;;;21.80
30765;BMP180;494;48.744;10.106;2024-03-08T14:09:13;94231.00;;;23.90
30765;BMP180;494;48.744;10.106;2024-03-08T14:11:51;94235.00;;;24.10
30765;BMP180;494;48.744;10.106;2024-03-08T14:14:26;94966.00;;;22.80
30765;BMP180;494;48.744;10.106;2024-03-08T14:16:55;94781.00;;;25.00
30765;BMP180;494;48.744;10.106;2024-03-08T14:19:28;95025.00;;;24.30
30765;BMP180;494;48.744;10.106;2024-03-08T14:22:00;94947.00;;;24.00
30765;BMP180;494;48.744;10.106;2024-03-08T14:24:31;94783.00;;;25.00
30765;BMP180;494;48.744;10.106;2024-03-08T14:27:05;94906.00;;;25.70
30765;BMP180;494;48.744;10.106;2024-03-08T14:29:36;94836.00;;;23.10
30765;BMP180;494;48.744;10.106;2024-03-08T14:32:06;94905.00;;;24.40
30765;BMP180;494;48.744;10.106;2024-03-08T14:34:39;94864.00;;;25.40
30765;BMP180;494;48.744;10.106;2024-03-08T14:37:09;94617.00;;;25.60
30765;BMP180;494;48.744;10.106;2024-03-08T14:39:39;94234.00;;;24.20
30765;BMP180;494;48.744;10.106;2024-03-08T14:42:09;94855.00;;;25.10
30765;BMP180;494;48.744;10.106;2024-03-08T14:44:40;94649.00;;;25.00
30765;BMP180;494;48.744;10.106;2024-03-08T14:47:11;94404.00;;;22.20
30765;BMP180;494;48.744;10.106;2024-03-08T14:49:41;94721.00;;;23.80
30765;BMP180;494;48.744;10.106;2024-03-08T14:52:10;94788.00;;;22.80
30765;BMP180;494;48.744;10.106;2024-03-08T14:54:55;94986.00;;;25.10
30765;BMP180;494;48.744;10.106;2024-03-08T14:57:27;94949.00;;;25.40
30765;BMP180;494;48.744;10.106;2024-03-08T14:59:56;94892.00;;;23.20